Thursday, January 17, 2019, 6:08 AM EST
Back to Local

KDAW, Skyhaven Airport

Location: Rochester, NH, United States Lat: 43.283
Local Time: 6:08 AM EST (11:08 GMT) Lon: -70.917
Time Zone: US/Eastern Elev: 321 ft

Show me the last for .
Show Decoded

2019-01-17 05:51 METAR KDAW 171051Z AUTO 31009KT 10SM CLR M13/M21 A3030 RMK AO2 SLP262 T11281206
                 =
2019-01-17 04:51 METAR KDAW 170951Z AUTO 30009KT 10SM CLR M12/M20 A3028 RMK AO2 SLP256 T11171200
                 =
2019-01-17 03:51 METAR KDAW 170851Z AUTO 31011KT 10SM CLR M11/M19 A3026 RMK AO2 SLP247 T11111189
                 51030 =
2019-01-17 02:51 METAR KDAW 170751Z AUTO 30013G18KT 10SM CLR M11/M18 A3024 RMK AO2 SLP241
                 T11061183 =
2019-01-17 01:51 METAR KDAW 170651Z AUTO 29008KT 10SM CLR M09/M18 A3021 RMK AO2 SLP230 T10891178
                 =
2019-01-17 00:51 METAR KDAW 170551Z AUTO 31014G20KT 10SM CLR M08/M18 A3017 RMK AO2 SLP217 60000
                 T10781183 10011 21078 51038 =
2019-01-16 23:51 METAR KDAW 170451Z AUTO 31009KT 10SM CLR M06/M16 A3013 RMK AO2 PK WND 30026/0405
                 SLP206 T10611161 400221072 =
2019-01-16 22:51 METAR KDAW 170351Z AUTO 31018G25KT 10SM CLR M04/M17 A3010 RMK AO2 PK WND
                 31030/0253 SLP192 T10391172 =
2019-01-16 21:51 METAR KDAW 170251Z AUTO 31016G24KT 10SM FEW060 M02/M12 A3005 RMK AO2 PK WND
                 32028/0209 SLP179 60000 T10221117 53043 =
2019-01-16 20:51 METAR KDAW 170151Z AUTO 30009G22KT 10SM SCT035 OVC045 00/M06 A2999 RMK AO2
                 PRESRR SLP158 T00001061 =
2019-01-16 19:51 METAR KDAW 170051Z AUTO VRB03KT 10SM FEW036 01/M05 A2995 RMK AO2 SNB26E37 SLP142
                 P0000 T00061050 =
2019-01-16 18:51 METAR KDAW 162351Z AUTO VRB03KT 10SM FEW043 OVC060 01/M06 A2992 RMK AO2 SLP135
                 T00061056 10022 20000 53022 =
2019-01-16 17:51 METAR KDAW 162251Z AUTO 00000KT 10SM SCT070 00/M06 A2989 RMK AO2 SLP124
                 T00001061 =
2019-01-16 16:51 METAR KDAW 162151Z AUTO VRB03KT 10SM CLR 01/M06 A2986 RMK AO2 SLP112 T00111061 =
2019-01-16 15:51 METAR KDAW 162051Z AUTO VRB03KT 10SM OVC065 02/M06 A2986 RMK AO2 SLP112
                 T00221061 53004 =
2019-01-16 14:51 METAR KDAW 161951Z AUTO VRB06KT 10SM CLR 02/M06 A2985 RMK AO2 SLP109 T00221061 =
2019-01-16 13:51 METAR KDAW 161851Z AUTO VRB04KT 10SM SCT038 02/M06 A2985 RMK AO2 SLP108
                 T00221056 =
2019-01-16 12:51 METAR KDAW 161751Z AUTO VRB04KT 10SM OVC036 02/M06 A2984 RMK AO2 SLP106
                 T00171056 10017 21061 56021 =
2019-01-16 11:51 METAR KDAW 161651Z AUTO VRB03KT 10SM CLR 01/M06 A2985 RMK AO2 SLP111 T00111056 =
2019-01-16 10:51 METAR KDAW 161551Z AUTO VRB04KT 10SM OVC031 M01/M06 A2990 RMK AO2 SLP125
                 T10061061 =
2019-01-16 09:51 METAR KDAW 161451Z AUTO VRB04KT 10SM FEW038 M02/M06 A2991 RMK AO2 SLP129
                 T10171061 56012 =
2019-01-16 08:51 METAR KDAW 161351Z AUTO 00000KT 10SM OVC041 M04/M07 A2992 RMK AO2 SLP132
                 T10441067 =
2019-01-16 07:51 METAR KDAW 161251Z AUTO 19003KT 10SM SCT034 OVC045 M06/M07 A2992 RMK AO2 SLP134
                 T10561072 =
2019-01-16 06:51 METAR KDAW 161151Z AUTO 00000KT 10SM OVC034 M06/M07 A2994 RMK AO2 SLP140 I6000
                 T10611072 11033 21072 56006 =

Support USWX by starting your Amazon purchase here.